Decoded Metar for ZUCK (CHONGQING in CHINA) (IATA:CKG) | Meteo·Mobile Aviation Weather
aviador You're here:

ZUCK Decoded Metar

CHONGQING in CHINA
Report Time2018-08-22 05:00:00
UTC Time2018-08-22 05:37:46
Flight Rules vfr VFR
Wind260° at 8 kt
W.Decomp.*RWY 20: 3.9 kt HW 7.0 kt RCW
W.Rank260° ranks 27
Current wind is above 260° avg. (5.4)
Visibility9999 m
Phenomena:N/A
Clouds:Scattered 026 Hf
Overcast 043 Hf
Expected CloudBase > 2,400 ft AGL from Temp-Dew spread
Ceiling4,300 ft
Temp28°C (ISA +15)
Dew Point22°C (70% RH)
Heat Index30.7°C
QNH1006 hPa
Density Alt3,497 ft
Elevation1,152 ft
Report Wrong Elevation
Raw Report
METAR ZUCK 220500Z 26004MPS 230V300 9999 SCT026 OVC043 28/22 Q1006
NOSIG=

Extra information for ZUCK:More info

Metar Taf Metar & Taf Last 4 Metars F.Rules Stats Wind Profile Meteogram Temp Stats Airport Information Weather charts Add Link Nearby VenuesMetar ALERT Operation Metar Decoded Social comments